createdAt,value
2024-04-22T00:01:45.691Z,101928.00
2024-04-22T00:04:13.864Z,101928.60
2024-04-22T00:06:45.031Z,101931.20
2024-04-22T00:09:14.209Z,101927.80
2024-04-22T00:11:42.128Z,101924.60
2024-04-22T00:14:12.947Z,101929.20
2024-04-22T00:16:41.296Z,101928.00
2024-04-22T00:19:10.302Z,101928.60
2024-04-22T00:21:38.143Z,101925.60
2024-04-22T00:24:08.536Z,101929.60
2024-04-22T00:26:36.352Z,101930.20
2024-04-22T00:29:04.073Z,101924.80
2024-04-22T00:31:31.879Z,101929.40
2024-04-22T00:33:59.633Z,101926.40
2024-04-22T00:36:27.379Z,101927.40
2024-04-22T00:38:55.127Z,101927.80
2024-04-22T00:41:27.416Z,101925.20
2024-04-22T00:43:55.182Z,101927.80
2024-04-22T00:46:22.987Z,101927.80
2024-04-22T00:48:51.691Z,101926.00
2024-04-22T00:51:19.469Z,101925.60
2024-04-22T00:53:47.823Z,101925.60
2024-04-22T00:56:16.932Z,101923.20
2024-04-22T00:58:47.219Z,101916.80
2024-04-22T01:01:18.269Z,101923.60
2024-04-22T01:03:46.181Z,101916.20
2024-04-22T01:06:13.918Z,101918.40
2024-04-22T01:08:41.717Z,101918.80
2024-04-22T01:11:09.544Z,101925.40
2024-04-22T01:13:37.981Z,101923.20
2024-04-22T01:16:05.994Z,101920.40
2024-04-22T01:18:33.769Z,101920.40
2024-04-22T01:21:01.638Z,101926.40
2024-04-22T01:23:31.916Z,101922.80
2024-04-22T01:26:03.528Z,101926.00
2024-04-22T01:28:31.432Z,101927.60
2024-04-22T01:30:59.574Z,101927.60
2024-04-22T01:33:27.391Z,101929.00
2024-04-22T01:35:55.196Z,101927.40
2024-04-22T01:38:23.103Z,101929.00
2024-04-22T01:40:50.930Z,101927.60
2024-04-22T01:43:18.876Z,101926.40
2024-04-22T01:45:46.720Z,101918.40
2024-04-22T01:48:14.631Z,101916.40
2024-04-22T01:50:42.495Z,101917.20
2024-04-22T01:53:10.374Z,101917.40
2024-04-22T01:55:38.370Z,101915.00
2024-04-22T01:58:06.266Z,101916.40
2024-04-22T02:00:34.177Z,101916.40
2024-04-22T02:03:02.158Z,101917.20
2024-04-22T02:05:30.197Z,101919.20
2024-04-22T02:07:57.977Z,101921.40
2024-04-22T02:10:26.074Z,101923.80
2024-04-22T02:12:53.995Z,101920.40
2024-04-22T02:15:21.865Z,101922.20
2024-04-22T02:17:52.411Z,101924.20
2024-04-22T02:20:20.279Z,101928.60
2024-04-22T02:22:48.224Z,101929.00
2024-04-22T02:25:16.179Z,101927.60
2024-04-22T02:27:44.256Z,101925.00
2024-04-22T02:30:12.156Z,101926.20
2024-04-22T02:32:39.985Z,101927.60
2024-04-22T02:35:07.780Z,101921.40
2024-04-22T02:37:35.709Z,101924.00
2024-04-22T02:40:03.921Z,101923.40
2024-04-22T02:42:31.929Z,101922.80
2024-04-22T02:44:59.698Z,101917.80
2024-04-22T02:47:27.713Z,101918.80
2024-04-22T02:49:55.665Z,101920.40
2024-04-22T02:52:23.474Z,101922.80
2024-04-22T02:54:51.333Z,101919.20
2024-04-22T02:57:19.120Z,101920.20
2024-04-22T02:59:46.926Z,101918.80
2024-04-22T03:02:14.827Z,101920.40
2024-04-22T03:04:42.669Z,101917.60
2024-04-22T03:07:10.780Z,101918.40
2024-04-22T03:09:41.536Z,101913.40
2024-04-22T03:12:10.987Z,101915.20
2024-04-22T03:14:39.425Z,101915.80
2024-04-22T03:17:07.480Z,101910.20
2024-04-22T03:19:35.454Z,101904.40
2024-04-22T03:22:03.955Z,101914.40
2024-04-22T03:24:31.851Z,101912.00
2024-04-22T03:26:59.703Z,101913.20
2024-04-22T03:29:28.828Z,101908.40
2024-04-22T03:31:56.755Z,101909.60
2024-04-22T03:34:24.694Z,101905.60
2024-04-22T03:36:52.473Z,101905.80
2024-04-22T03:39:20.228Z,101901.80
2024-04-22T03:41:48.132Z,101899.20
2024-04-22T03:44:16.027Z,101892.80
2024-04-22T03:47:02.805Z,101894.80
2024-04-22T03:49:49.466Z,101896.20
2024-04-22T03:52:17.560Z,101894.40
2024-04-22T03:54:45.581Z,101893.60
2024-04-22T03:57:13.408Z,101894.20
2024-04-22T03:59:41.329Z,101894.80
2024-04-22T04:02:09.329Z,101893.40
2024-04-22T04:04:37.749Z,101886.00
2024-04-22T04:07:05.895Z,101885.40
2024-04-22T04:09:33.765Z,101885.80
2024-04-22T04:12:01.941Z,101883.80
2024-04-22T04:14:29.740Z,101884.00
2024-04-22T04:16:57.732Z,101880.40
2024-04-22T04:19:27.211Z,101883.00
2024-04-22T04:21:55.804Z,101876.00
2024-04-22T04:24:23.748Z,101870.00
2024-04-22T04:26:51.605Z,101877.20
2024-04-22T04:29:19.292Z,101880.60
2024-04-22T04:31:47.126Z,101874.00
2024-04-22T04:34:15.467Z,101874.00
2024-04-22T04:36:43.253Z,101875.60
2024-04-22T04:39:11.150Z,101872.40
2024-04-22T04:41:39.539Z,101876.20
2024-04-22T04:44:08.466Z,101873.20
2024-04-22T04:46:37.098Z,101873.20
2024-04-22T04:49:04.941Z,101875.20
2024-04-22T04:51:32.723Z,101871.60
2024-04-22T04:54:00.731Z,101869.60
2024-04-22T04:56:28.743Z,101873.60
2024-04-22T04:58:56.693Z,101871.20
2024-04-22T05:01:24.887Z,101866.80
2024-04-22T05:03:52.778Z,101866.80
2024-04-22T05:06:20.634Z,101863.80
2024-04-22T05:08:48.371Z,101860.60
2024-04-22T05:11:16.569Z,101859.00
2024-04-22T05:13:44.639Z,101859.60
2024-04-22T05:16:12.599Z,101856.80
2024-04-22T05:18:43.382Z,101855.00
2024-04-22T05:21:11.982Z,101861.40
2024-04-22T05:23:46.528Z,101857.20
2024-04-22T05:26:14.806Z,101857.40
2024-04-22T05:28:44.777Z,101856.00
2024-04-22T05:31:14.007Z,101858.40
2024-04-22T05:34:00.219Z,101856.60
2024-04-22T05:36:28.154Z,101853.40
2024-04-22T05:38:56.185Z,101852.00
2024-04-22T05:41:24.248Z,101855.20
2024-04-22T05:43:52.138Z,101852.60
2024-04-22T05:46:20.193Z,101852.20
2024-04-22T05:48:48.095Z,101849.00
2024-04-22T05:51:15.924Z,101852.80
2024-04-22T05:53:44.503Z,101856.40
2024-04-22T05:56:12.475Z,101850.00
2024-04-22T05:58:40.327Z,101852.00
2024-04-22T06:01:08.340Z,101851.20
2024-04-22T06:03:36.297Z,101846.80
2024-04-22T06:06:04.730Z,101847.00
2024-04-22T06:08:32.541Z,101843.60
2024-04-22T06:11:01.473Z,101842.40
2024-04-22T06:13:29.568Z,101836.60
2024-04-22T06:15:58.451Z,101835.40
2024-04-22T06:18:26.782Z,101831.60
2024-04-22T06:20:54.542Z,101829.40
2024-04-22T06:23:22.416Z,101821.80
2024-04-22T06:25:50.303Z,101820.40
2024-04-22T06:28:18.677Z,101818.20
2024-04-22T06:30:48.143Z,101814.80
2024-04-22T06:33:15.897Z,101813.00
2024-04-22T06:35:43.719Z,101803.60
2024-04-22T06:38:11.523Z,101800.20
2024-04-22T06:40:42.574Z,101792.00
2024-04-22T06:43:12.221Z,101783.20
2024-04-22T06:45:40.892Z,101759.60
2024-04-22T06:48:08.697Z,101748.60
2024-04-22T06:50:37.185Z,101730.60
2024-04-22T06:53:05.072Z,101716.20
2024-04-22T06:55:32.905Z,101703.20
2024-04-22T06:58:00.754Z,101699.00
2024-04-22T07:00:29.651Z,101690.40
2024-04-22T07:02:58.165Z,101682.60
2024-04-22T07:05:26.292Z,101678.40
2024-04-22T07:07:54.129Z,101686.00
2024-04-22T07:10:21.994Z,101698.80
2024-04-22T07:12:49.951Z,101694.20
2024-04-22T07:15:19.699Z,101712.80
2024-04-22T07:17:49.971Z,101729.80
2024-04-22T07:20:18.146Z,101714.00
2024-04-22T07:22:46.025Z,101701.80
2024-04-22T07:25:13.888Z,101711.80
2024-04-22T07:27:43.696Z,101725.20
2024-04-22T07:30:12.317Z,101742.60
2024-04-22T07:32:40.673Z,101750.60
2024-04-22T07:35:09.630Z,101758.20
2024-04-22T07:37:44.439Z,101760.40
2024-04-22T07:40:20.622Z,101763.80
2024-04-22T07:42:48.952Z,101772.20
2024-04-22T07:45:22.737Z,101779.20
2024-04-22T07:47:53.328Z,101784.60
2024-04-22T07:50:21.532Z,101791.40
2024-04-22T07:52:51.725Z,101791.80
2024-04-22T07:55:19.980Z,101790.00
2024-04-22T07:57:50.281Z,101792.00
2024-04-22T08:00:20.343Z,101787.80
2024-04-22T08:02:49.147Z,101785.80
2024-04-22T08:05:17.633Z,101790.00
2024-04-22T08:07:48.809Z,101796.40
2024-04-22T08:10:17.207Z,101798.40
2024-04-22T08:12:45.084Z,101797.20
2024-04-22T08:15:14.059Z,101796.00
2024-04-22T08:17:41.853Z,101802.20
2024-04-22T08:20:10.358Z,101780.40
2024-04-22T08:22:38.253Z,101765.00
2024-04-22T08:25:06.327Z,101773.60
2024-04-22T08:27:34.280Z,101771.80
2024-04-22T08:30:02.107Z,101779.20
2024-04-22T08:32:30.296Z,101769.40
2024-04-22T08:34:59.007Z,101772.20
2024-04-22T08:37:27.327Z,101773.20
2024-04-22T08:39:55.171Z,101768.60
2024-04-22T08:42:24.790Z,101764.60
2024-04-22T08:44:53.896Z,101752.80
2024-04-22T08:47:22.215Z,101768.40
2024-04-22T08:49:50.409Z,101774.00
2024-04-22T08:52:18.802Z,101781.00
2024-04-22T08:54:46.978Z,101776.00
2024-04-22T08:57:15.727Z,101787.40
2024-04-22T08:59:45.466Z,101791.20
2024-04-22T09:02:16.023Z,101791.40
2024-04-22T09:04:46.950Z,101791.80
2024-04-22T09:07:19.952Z,101798.60
2024-04-22T09:10:05.033Z,101800.40
2024-04-22T09:12:36.631Z,101799.80
2024-04-22T09:15:06.298Z,101801.00
2024-04-22T09:17:34.985Z,101803.80
2024-04-22T09:20:04.684Z,101803.20
2024-04-22T09:22:32.673Z,101798.20
2024-04-22T09:25:01.099Z,101797.80
2024-04-22T09:27:29.570Z,101793.60
2024-04-22T09:30:05.178Z,101788.80
2024-04-22T09:32:33.787Z,101781.60
2024-04-22T09:35:19.428Z,101780.40
2024-04-22T09:37:50.587Z,101773.00
2024-04-22T09:40:20.412Z,101768.80
2024-04-22T09:42:49.710Z,101764.60
2024-04-22T09:45:17.738Z,101762.40
2024-04-22T09:47:47.406Z,101758.80
2024-04-22T09:50:17.439Z,101759.00
2024-04-22T09:52:48.300Z,101757.80
2024-04-22T09:55:17.138Z,101748.60
2024-04-22T09:57:48.706Z,101744.80
2024-04-22T10:00:18.042Z,101739.20
2024-04-22T10:02:46.789Z,101734.60
2024-04-22T10:05:16.421Z,101731.40
2024-04-22T10:07:44.448Z,101740.60
2024-04-22T10:10:13.667Z,101743.20
2024-04-22T10:12:41.818Z,101742.40
2024-04-22T10:15:14.794Z,101751.40
2024-04-22T10:17:46.343Z,101747.80
2024-04-22T10:20:18.676Z,101750.80
2024-04-22T10:22:46.777Z,101748.20
2024-04-22T10:25:19.631Z,101749.40
2024-04-22T10:27:47.683Z,101744.00
2024-04-22T10:30:15.934Z,101743.40
2024-04-22T10:32:43.873Z,101743.00
2024-04-22T10:35:11.995Z,101745.20
2024-04-22T10:37:39.924Z,101746.80
2024-04-22T10:40:09.093Z,101743.00
2024-04-22T10:42:36.996Z,101754.60
2024-04-22T10:45:05.585Z,101751.20
2024-04-22T10:47:34.695Z,101758.20
2024-04-22T10:50:02.586Z,101755.40
2024-04-22T10:52:30.995Z,101758.60
2024-04-22T10:54:59.467Z,101761.80
2024-04-22T10:57:27.421Z,101764.40
2024-04-22T10:59:57.089Z,101768.20
2024-04-22T11:02:25.209Z,101770.60
2024-04-22T11:04:53.235Z,101765.80
2024-04-22T11:07:24.573Z,101765.80
2024-04-22T11:09:52.922Z,101771.40
2024-04-22T11:12:24.933Z,101773.20
2024-04-22T11:14:54.915Z,101765.40
2024-04-22T11:17:24.543Z,101764.60
2024-04-22T11:19:53.396Z,101769.80
2024-04-22T11:22:22.445Z,101771.00
2024-04-22T11:24:50.346Z,101771.20
2024-04-22T11:27:18.333Z,101771.20
2024-04-22T11:29:46.270Z,101771.80
2024-04-22T11:32:14.228Z,101778.80
2024-04-22T11:34:42.157Z,101780.20
2024-04-22T11:37:10.158Z,101778.40
2024-04-22T11:39:37.910Z,101778.60
2024-04-22T11:42:06.142Z,101781.20
2024-04-22T11:44:34.018Z,101774.80
2024-04-22T11:47:02.351Z,101777.00
2024-04-22T11:49:30.278Z,101773.20
2024-04-22T11:51:58.204Z,101774.80
2024-04-22T11:54:26.336Z,101770.40
2024-04-22T11:56:54.232Z,101771.40
2024-04-22T11:59:22.098Z,101770.80
2024-04-22T12:01:51.236Z,101771.00
2024-04-22T12:04:19.384Z,101770.80
2024-04-22T12:06:48.070Z,101772.60
2024-04-22T12:09:15.880Z,101773.40
2024-04-22T12:11:43.781Z,101770.80
2024-04-22T12:14:11.705Z,101763.40
2024-04-22T12:16:39.721Z,101760.60
2024-04-22T12:19:07.721Z,101758.80
2024-04-22T12:21:35.841Z,101753.40
2024-04-22T12:24:03.865Z,101753.40
2024-04-22T12:26:31.795Z,101746.80
2024-04-22T12:28:59.575Z,101744.20
2024-04-22T12:31:27.583Z,101742.00
2024-04-22T12:34:05.893Z,101743.60
2024-04-22T12:36:38.361Z,101744.00
2024-04-22T12:39:06.291Z,101745.40
2024-04-22T12:41:34.311Z,101741.00
2024-04-22T12:44:04.163Z,101739.60
2024-04-22T12:46:42.057Z,101740.60
2024-04-22T12:49:28.551Z,101739.20
2024-04-22T12:51:56.320Z,101745.20
2024-04-22T12:54:24.412Z,101744.60
2024-04-22T12:56:52.641Z,101745.20
2024-04-22T12:59:20.661Z,101738.00
2024-04-22T13:01:48.516Z,101738.00
2024-04-22T13:04:16.591Z,101737.40
2024-04-22T13:06:44.458Z,101737.80
2024-04-22T13:09:14.364Z,101737.00
2024-04-22T13:11:42.541Z,101736.60
2024-04-22T13:14:10.685Z,101738.40
2024-04-22T13:16:38.511Z,101736.80
2024-04-22T13:19:07.927Z,101727.80
2024-04-22T13:21:36.190Z,101732.80
2024-04-22T13:24:04.347Z,101730.40
2024-04-22T13:26:32.180Z,101727.00
2024-04-22T13:29:00.166Z,101733.00
2024-04-22T13:31:36.228Z,101724.00
2024-04-22T13:34:11.670Z,101723.80
2024-04-22T13:36:39.558Z,101725.20
2024-04-22T13:39:07.766Z,101727.80
2024-04-22T13:41:35.647Z,101729.80
2024-04-22T13:44:03.540Z,101732.00
2024-04-22T13:46:31.306Z,101732.40
2024-04-22T13:48:59.153Z,101728.20
2024-04-22T13:51:27.752Z,101732.60
2024-04-22T13:53:55.597Z,101736.20
2024-04-22T13:56:23.506Z,101726.00
2024-04-22T13:58:51.389Z,101724.00
2024-04-22T14:01:19.383Z,101722.00
2024-04-22T14:03:48.966Z,101719.40
2024-04-22T14:06:17.335Z,101723.20
2024-04-22T14:08:46.777Z,101728.20
2024-04-22T14:11:14.822Z,101726.80
2024-04-22T14:13:42.883Z,101737.60
2024-04-22T14:16:10.812Z,101743.20
2024-04-22T14:18:38.670Z,101739.80
2024-04-22T14:21:06.612Z,101738.80
2024-04-22T14:23:34.352Z,101744.00
2024-04-22T14:26:02.196Z,101746.80
2024-04-22T14:28:30.068Z,101744.20
2024-04-22T14:30:57.853Z,101749.00
2024-04-22T14:33:25.843Z,101756.40
2024-04-22T14:35:53.835Z,101757.60
2024-04-22T14:38:22.000Z,101762.20
2024-04-22T14:40:50.082Z,101768.40
2024-04-22T14:43:18.124Z,101763.80
2024-04-22T14:45:46.003Z,101763.00
2024-04-22T14:48:13.872Z,101766.60
2024-04-22T14:50:41.830Z,101761.40
2024-04-22T14:53:09.763Z,101762.40
2024-04-22T14:55:39.231Z,101762.20
2024-04-22T14:58:07.632Z,101765.40
2024-04-22T15:00:35.429Z,101769.60
2024-04-22T15:03:04.509Z,101772.80
2024-04-22T15:05:32.824Z,101781.40
2024-04-22T15:08:00.757Z,101782.00
2024-04-22T15:10:29.089Z,101788.80
2024-04-22T15:12:56.844Z,101788.00
2024-04-22T15:15:24.681Z,101788.80
2024-04-22T15:17:52.532Z,101783.80
2024-04-22T15:20:20.964Z,101779.60
2024-04-22T15:22:48.864Z,101780.00
2024-04-22T15:25:16.933Z,101778.20
2024-04-22T15:27:45.009Z,101771.00
2024-04-22T15:30:12.983Z,101769.20
2024-04-22T15:32:42.725Z,101765.00
2024-04-22T15:35:10.869Z,101769.00
2024-04-22T15:37:38.796Z,101772.40
2024-04-22T15:40:08.647Z,101772.00
2024-04-22T15:42:36.734Z,101765.40
2024-04-22T15:45:05.242Z,101757.60
2024-04-22T15:47:33.254Z,101749.60
2024-04-22T15:50:01.194Z,101741.60
2024-04-22T15:52:29.338Z,101741.00
2024-04-22T15:54:57.393Z,101740.80
2024-04-22T15:57:25.189Z,101736.00
2024-04-22T16:00:01.811Z,101736.40
2024-04-22T16:02:37.172Z,101735.60
2024-04-22T16:05:05.976Z,101735.20
2024-04-22T16:07:34.007Z,101731.80
2024-04-22T16:10:02.111Z,101734.80
2024-04-22T16:12:29.968Z,101734.80
2024-04-22T16:14:59.131Z,101737.40
2024-04-22T16:17:27.793Z,101733.40
2024-04-22T16:19:55.904Z,101734.80
2024-04-22T16:22:24.329Z,101734.20
2024-04-22T16:24:52.157Z,101737.20
2024-04-22T16:27:20.191Z,101737.20
2024-04-22T16:29:48.328Z,101736.40
2024-04-22T16:32:16.312Z,101731.40
2024-04-22T16:34:44.364Z,101729.80
2024-04-22T16:37:12.394Z,101730.40
2024-04-22T16:39:42.083Z,101725.60
2024-04-22T16:42:10.007Z,101728.20
2024-04-22T16:44:38.144Z,101730.00
2024-04-22T16:47:06.185Z,101729.40
2024-04-22T16:49:34.003Z,101725.00
2024-04-22T16:52:02.213Z,101732.60
2024-04-22T16:54:30.126Z,101729.60
2024-04-22T16:56:58.141Z,101732.40
2024-04-22T16:59:26.026Z,101730.80
2024-04-22T17:01:53.961Z,101734.20
2024-04-22T17:04:21.918Z,101738.60
2024-04-22T17:06:49.772Z,101741.40
2024-04-22T17:09:23.145Z,101742.20
2024-04-22T17:11:51.146Z,101751.20
2024-04-22T17:14:19.021Z,101750.20
2024-04-22T17:16:46.856Z,101756.40
2024-04-22T17:19:14.808Z,101752.20
2024-04-22T17:21:42.953Z,101753.40
2024-04-22T17:24:10.861Z,101750.60
2024-04-22T17:26:39.829Z,101749.40
2024-04-22T17:29:07.745Z,101753.60
2024-04-22T17:31:35.831Z,101756.80
2024-04-22T17:34:06.731Z,101756.40
2024-04-22T17:36:34.520Z,101751.40
2024-04-22T17:39:02.400Z,101758.20
2024-04-22T17:41:30.640Z,101755.20
2024-04-22T17:43:58.521Z,101758.80
2024-04-22T17:46:26.435Z,101762.00
2024-04-22T17:48:54.356Z,101762.60
2024-04-22T17:51:22.493Z,101763.60
2024-04-22T17:53:50.782Z,101764.20
2024-04-22T17:56:19.135Z,101763.40
2024-04-22T17:58:47.442Z,101763.80
2024-04-22T18:01:15.422Z,101765.00
2024-04-22T18:03:44.262Z,101767.60
2024-04-22T18:06:12.164Z,101768.20
2024-04-22T18:08:43.129Z,101770.00
2024-04-22T18:11:11.007Z,101774.00
2024-04-22T18:13:38.855Z,101776.60
2024-04-22T18:16:07.103Z,101772.60
2024-04-22T18:18:34.941Z,101768.60
2024-04-22T18:21:05.754Z,101772.80
2024-04-22T18:23:33.906Z,101770.20
2024-04-22T18:26:09.461Z,101772.80
2024-04-22T18:28:43.913Z,101771.80
2024-04-22T18:31:12.133Z,101774.40
2024-04-22T18:33:40.171Z,101777.80
2024-04-22T18:36:08.236Z,101779.80
2024-04-22T18:38:36.167Z,101790.20
2024-04-22T18:41:04.736Z,101787.60
2024-04-22T18:43:34.246Z,101784.00
2024-04-22T18:46:02.077Z,101789.60
2024-04-22T18:48:30.058Z,101793.80
2024-04-22T18:50:59.801Z,101792.60
2024-04-22T18:53:27.745Z,101788.60
2024-04-22T18:55:55.695Z,101788.80
2024-04-22T18:58:28.717Z,101788.60
2024-04-22T19:00:58.574Z,101788.80
2024-04-22T19:03:26.591Z,101787.00
2024-04-22T19:05:54.449Z,101793.80
2024-04-22T19:08:22.270Z,101791.60
2024-04-22T19:10:50.712Z,101785.60
2024-04-22T19:13:18.737Z,101792.00
2024-04-22T19:15:48.012Z,101795.80
2024-04-22T19:18:16.184Z,101796.60
2024-04-22T19:20:44.037Z,101801.20
2024-04-22T19:23:12.421Z,101804.80
2024-04-22T19:25:41.598Z,101798.20
2024-04-22T19:28:09.725Z,101801.00
2024-04-22T19:30:41.395Z,101803.40
2024-04-22T19:33:09.476Z,101806.60
2024-04-22T19:35:37.459Z,101800.20
2024-04-22T19:38:05.608Z,101803.60
2024-04-22T19:40:36.055Z,101801.00
2024-04-22T19:43:04.342Z,101802.00
2024-04-22T19:45:32.301Z,101804.20
2024-04-22T19:48:00.217Z,101813.80
2024-04-22T19:50:28.239Z,101810.40
2024-04-22T19:52:56.490Z,101810.20
2024-04-22T19:55:24.362Z,101811.20
2024-04-22T19:57:53.504Z,101811.00
2024-04-22T20:00:25.278Z,101814.80
2024-04-22T20:02:53.132Z,101814.80
2024-04-22T20:05:22.231Z,101821.00
2024-04-22T20:07:50.093Z,101820.60
2024-04-22T20:10:18.241Z,101819.40
2024-04-22T20:12:47.667Z,101821.20
2024-04-22T20:15:40.450Z,101820.60
2024-04-22T20:18:14.426Z,101818.20
2024-04-22T20:20:43.833Z,101819.40
2024-04-22T20:23:11.772Z,101821.80
2024-04-22T20:25:39.834Z,101819.20
2024-04-22T20:28:07.917Z,101825.60
2024-04-22T20:30:36.236Z,101829.80
2024-04-22T20:33:04.442Z,101836.80
2024-04-22T20:35:32.389Z,101844.40
2024-04-22T20:38:00.442Z,101845.00
2024-04-22T20:40:28.567Z,101846.00
2024-04-22T20:42:56.455Z,101845.20
2024-04-22T20:45:25.991Z,101846.80
2024-04-22T20:47:53.848Z,101843.00
2024-04-22T20:50:21.632Z,101836.60
2024-04-22T20:52:51.578Z,101838.80
2024-04-22T20:55:19.929Z,101843.20
2024-04-22T20:57:47.933Z,101845.40
2024-04-22T21:00:16.753Z,101844.00
2024-04-22T21:02:44.619Z,101837.40
2024-04-22T21:05:12.506Z,101835.00
2024-04-22T21:07:40.607Z,101832.00
2024-04-22T21:10:09.232Z,101822.00
2024-04-22T21:12:37.155Z,101817.40
2024-04-22T21:15:05.512Z,101822.60
2024-04-22T21:17:33.529Z,101824.40
2024-04-22T21:20:01.538Z,101828.80
2024-04-22T21:22:29.363Z,101826.00
2024-04-22T21:24:57.433Z,101823.60
2024-04-22T21:27:26.084Z,101827.20
2024-04-22T21:29:54.033Z,101828.20
2024-04-22T21:32:21.948Z,101828.20
2024-04-22T21:34:49.971Z,101830.00
2024-04-22T21:37:17.947Z,101833.40
2024-04-22T21:39:45.865Z,101834.20
2024-04-22T21:42:13.788Z,101836.60
2024-04-22T21:44:41.665Z,101837.40
2024-04-22T21:47:09.481Z,101830.40
2024-04-22T21:49:37.304Z,101824.00
2024-04-22T21:52:07.754Z,101828.60
2024-04-22T21:54:35.618Z,101835.40
2024-04-22T21:58:00.399Z,101839.60
2024-04-22T22:01:25.488Z,101838.80
2024-04-22T22:04:50.561Z,101834.80
2024-04-22T22:07:18.361Z,101837.20
2024-04-22T22:09:48.424Z,101841.60
2024-04-22T22:12:19.822Z,101846.40
2024-04-22T22:14:49.397Z,101846.60
2024-04-22T22:17:20.465Z,101847.80
2024-04-22T22:19:50.225Z,101845.00
2024-04-22T22:22:18.392Z,101844.60
2024-04-22T22:24:46.705Z,101842.40
2024-04-22T22:27:15.651Z,101839.40
2024-04-22T22:29:43.558Z,101834.20
2024-04-22T22:32:11.427Z,101831.40
2024-04-22T22:34:39.272Z,101832.20
2024-04-22T22:37:08.657Z,101832.00
2024-04-22T22:39:36.425Z,101834.20
2024-04-22T22:42:04.433Z,101831.80
2024-04-22T22:44:32.524Z,101831.20
2024-04-22T22:47:10.301Z,101828.80
2024-04-22T22:49:38.261Z,101829.60
2024-04-22T22:52:06.195Z,101832.40
2024-04-22T22:54:34.054Z,101830.60
2024-04-22T22:57:01.933Z,101826.20
2024-04-22T22:59:29.696Z,101823.20
2024-04-22T23:01:58.447Z,101820.20
2024-04-22T23:04:26.425Z,101818.60
2024-04-22T23:07:02.874Z,101819.00
2024-04-22T23:09:30.749Z,101812.40
2024-04-22T23:11:58.597Z,101809.00
2024-04-22T23:14:26.614Z,101807.60
2024-04-22T23:16:54.661Z,101801.60
2024-04-22T23:19:22.695Z,101796.80
2024-04-22T23:21:50.543Z,101800.60
2024-04-22T23:24:18.449Z,101800.40
2024-04-22T23:26:55.916Z,101798.00
2024-04-22T23:29:23.875Z,101793.20
2024-04-22T23:31:51.788Z,101797.20
2024-04-22T23:34:19.757Z,101792.40
2024-04-22T23:36:48.989Z,101790.20
2024-04-22T23:39:17.561Z,101784.80
2024-04-22T23:41:46.015Z,101789.20
2024-04-22T23:44:14.250Z,101791.60
2024-04-22T23:46:57.322Z,101791.00
2024-04-22T23:49:26.691Z,101790.00
2024-04-22T23:51:55.041Z,101790.80
2024-04-22T23:54:22.988Z,101790.40
2024-04-22T23:57:03.750Z,101790.20
2024-04-22T23:59:31.697Z,101790.20
